sensor_id;sensor_type;location;lat;lon;timestamp;temperature;humidity
4651;DHT22;2338;49.602;8.722;2023-03-01T00:00:40;2.10;71.00
4651;DHT22;2338;49.602;8.722;2023-03-01T00:03:27;2.10;70.70
4651;DHT22;2338;49.602;8.722;2023-03-01T00:06:13;2.10;71.20
4651;DHT22;2338;49.602;8.722;2023-03-01T00:08:59;2.20;70.70
4651;DHT22;2338;49.602;8.722;2023-03-01T00:11:44;2.10;71.10
4651;DHT22;2338;49.602;8.722;2023-03-01T00:14:30;2.10;71.60
4651;DHT22;2338;49.602;8.722;2023-03-01T00:17:16;2.00;71.60
4651;DHT22;2338;49.602;8.722;2023-03-01T00:20:04;2.00;71.40
4651;DHT22;2338;49.602;8.722;2023-03-01T00:22:51;2.00;71.70
4651;DHT22;2338;49.602;8.722;2023-03-01T00:25:41;2.00;72.10
4651;DHT22;2338;49.602;8.722;2023-03-01T00:28:27;2.10;72.00
4651;DHT22;2338;49.602;8.722;2023-03-01T00:31:15;2.00;72.10
4651;DHT22;2338;49.602;8.722;2023-03-01T00:34:02;2.10;71.20
4651;DHT22;2338;49.602;8.722;2023-03-01T00:36:50;2.10;71.40
4651;DHT22;2338;49.602;8.722;2023-03-01T00:39:35;2.10;71.70
4651;DHT22;2338;49.602;8.722;2023-03-01T00:42:21;2.10;71.80
4651;DHT22;2338;49.602;8.722;2023-03-01T00:45:07;2.00;71.90
4651;DHT22;2338;49.602;8.722;2023-03-01T00:47:53;2.00;71.90
4651;DHT22;2338;49.602;8.722;2023-03-01T00:50:39;2.00;72.20
4651;DHT22;2338;49.602;8.722;2023-03-01T00:53:26;2.00;71.90
4651;DHT22;2338;49.602;8.722;2023-03-01T00:56:13;1.90;72.80
4651;DHT22;2338;49.602;8.722;2023-03-01T00:58:59;1.80;73.40
4651;DHT22;2338;49.602;8.722;2023-03-01T01:01:45;1.70;74.10
4651;DHT22;2338;49.602;8.722;2023-03-01T01:04:30;1.70;74.70
4651;DHT22;2338;49.602;8.722;2023-03-01T01:07:16;1.60;75.10
4651;DHT22;2338;49.602;8.722;2023-03-01T01:10:04;1.50;75.70
4651;DHT22;2338;49.602;8.722;2023-03-01T01:12:49;1.40;76.40
4651;DHT22;2338;49.602;8.722;2023-03-01T01:15:35;1.60;76.30
4651;DHT22;2338;49.602;8.722;2023-03-01T01:18:21;1.60;75.90
4651;DHT22;2338;49.602;8.722;2023-03-01T01:21:08;1.60;75.40
4651;DHT22;2338;49.602;8.722;2023-03-01T01:23:54;1.50;76.50
4651;DHT22;2338;49.602;8.722;2023-03-01T01:26:43;1.40;76.90
4651;DHT22;2338;49.602;8.722;2023-03-01T01:29:28;1.30;77.50
4651;DHT22;2338;49.602;8.722;2023-03-01T01:32:14;1.20;77.80
4651;DHT22;2338;49.602;8.722;2023-03-01T01:34:59;1.20;78.10
4651;DHT22;2338;49.602;8.722;2023-03-01T01:37:45;1.30;78.40
4651;DHT22;2338;49.602;8.722;2023-03-01T01:40:31;1.20;78.90
4651;DHT22;2338;49.602;8.722;2023-03-01T01:43:22;1.10;80.00
4651;DHT22;2338;49.602;8.722;2023-03-01T01:46:18;1.10;81.30
4651;DHT22;2338;49.602;8.722;2023-03-01T01:49:10;1.10;81.40
4651;DHT22;2338;49.602;8.722;2023-03-01T01:52:08;1.10;81.80
4651;DHT22;2338;49.602;8.722;2023-03-01T01:54:57;1.10;82.90
4651;DHT22;2338;49.602;8.722;2023-03-01T01:57:48;1.10;82.50
4651;DHT22;2338;49.602;8.722;2023-03-01T02:00:37;1.20;82.00
4651;DHT22;2338;49.602;8.722;2023-03-01T02:03:24;1.20;81.90
4651;DHT22;2338;49.602;8.722;2023-03-01T02:06:19;1.10;81.60
4651;DHT22;2338;49.602;8.722;2023-03-01T02:09:10;1.10;81.40
4651;DHT22;2338;49.602;8.722;2023-03-01T02:11:57;1.00;82.20
4651;DHT22;2338;49.602;8.722;2023-03-01T02:14:43;1.00;82.60
4651;DHT22;2338;49.602;8.722;2023-03-01T02:17:30;1.00;82.50
4651;DHT22;2338;49.602;8.722;2023-03-01T02:20:22;0.90;83.10
4651;DHT22;2338;49.602;8.722;2023-03-01T02:23:08;0.90;84.80
4651;DHT22;2338;49.602;8.722;2023-03-01T02:25:58;0.80;85.00
4651;DHT22;2338;49.602;8.722;2023-03-01T02:28:47;0.70;86.00
4651;DHT22;2338;49.602;8.722;2023-03-01T02:31:33;0.60;87.70
4651;DHT22;2338;49.602;8.722;2023-03-01T02:34:31;0.60;90.10
4651;DHT22;2338;49.602;8.722;2023-03-01T02:37:17;0.50;90.30
4651;DHT22;2338;49.602;8.722;2023-03-01T02:40:09;0.60;90.50
4651;DHT22;2338;49.602;8.722;2023-03-01T02:42:58;0.70;90.60
4651;DHT22;2338;49.602;8.722;2023-03-01T02:45:49;0.80;90.20
4651;DHT22;2338;49.602;8.722;2023-03-01T02:48:43;0.80;90.10
4651;DHT22;2338;49.602;8.722;2023-03-01T02:51:45;0.90;89.70
4651;DHT22;2338;49.602;8.722;2023-03-01T02:54:34;0.90;89.50
4651;DHT22;2338;49.602;8.722;2023-03-01T02:57:22;0.80;90.10
4651;DHT22;2338;49.602;8.722;2023-03-01T03:00:10;0.80;90.00
4651;DHT22;2338;49.602;8.722;2023-03-01T03:03:05;0.80;90.60
4651;DHT22;2338;49.602;8.722;2023-03-01T03:05:50;1.00;90.30
4651;DHT22;2338;49.602;8.722;2023-03-01T03:08:36;1.10;89.80
4651;DHT22;2338;49.602;8.722;2023-03-01T03:11:21;1.20;88.60
4651;DHT22;2338;49.602;8.722;2023-03-01T03:14:08;1.20;87.60
4651;DHT22;2338;49.602;8.722;2023-03-01T03:16:56;1.30;87.60
4651;DHT22;2338;49.602;8.722;2023-03-01T03:19:43;1.40;86.40
4651;DHT22;2338;49.602;8.722;2023-03-01T03:22:30;1.40;86.00
4651;DHT22;2338;49.602;8.722;2023-03-01T03:25:16;1.30;85.70
4651;DHT22;2338;49.602;8.722;2023-03-01T03:28:02;1.30;86.00
4651;DHT22;2338;49.602;8.722;2023-03-01T03:30:53;1.40;85.80
4651;DHT22;2338;49.602;8.722;2023-03-01T03:33:39;1.40;85.40
4651;DHT22;2338;49.602;8.722;2023-03-01T03:36:26;1.50;84.60
4651;DHT22;2338;49.602;8.722;2023-03-01T03:39:11;1.60;84.30
4651;DHT22;2338;49.602;8.722;2023-03-01T03:41:57;1.50;84.10
4651;DHT22;2338;49.602;8.722;2023-03-01T03:44:43;1.60;83.60
4651;DHT22;2338;49.602;8.722;2023-03-01T03:47:28;1.60;83.60
4651;DHT22;2338;49.602;8.722;2023-03-01T03:50:16;1.50;83.50
4651;DHT22;2338;49.602;8.722;2023-03-01T03:53:05;1.50;83.50
4651;DHT22;2338;49.602;8.722;2023-03-01T03:55:51;1.50;83.50
4651;DHT22;2338;49.602;8.722;2023-03-01T03:58:37;1.60;83.60
4651;DHT22;2338;49.602;8.722;2023-03-01T04:01:23;1.50;83.50
4651;DHT22;2338;49.602;8.722;2023-03-01T04:04:08;1.60;83.80
4651;DHT22;2338;49.602;8.722;2023-03-01T04:06:54;1.40;83.90
4651;DHT22;2338;49.602;8.722;2023-03-01T04:09:42;1.40;84.30
4651;DHT22;2338;49.602;8.722;2023-03-01T04:12:27;1.30;85.00
4651;DHT22;2338;49.602;8.722;2023-03-01T04:15:13;1.30;85.50
4651;DHT22;2338;49.602;8.722;2023-03-01T04:17:59;1.30;85.80
4651;DHT22;2338;49.602;8.722;2023-03-01T04:20:46;1.30;85.70
4651;DHT22;2338;49.602;8.722;2023-03-01T04:23:31;1.30;85.70
4651;DHT22;2338;49.602;8.722;2023-03-01T04:26:18;1.30;85.50
4651;DHT22;2338;49.602;8.722;2023-03-01T04:29:04;1.30;85.50
4651;DHT22;2338;49.602;8.722;2023-03-01T04:31:50;1.30;85.30
4651;DHT22;2338;49.602;8.722;2023-03-01T04:34:36;1.30;85.10
4651;DHT22;2338;49.602;8.722;2023-03-01T04:37:22;1.30;85.50
4651;DHT22;2338;49.602;8.722;2023-03-01T04:40:09;1.30;85.20
4651;DHT22;2338;49.602;8.722;2023-03-01T04:43:02;1.40;85.30
4651;DHT22;2338;49.602;8.722;2023-03-01T04:45:47;1.50;84.50
4651;DHT22;2338;49.602;8.722;2023-03-01T04:48:33;1.60;84.00
4651;DHT22;2338;49.602;8.722;2023-03-01T04:51:19;1.60;83.90
4651;DHT22;2338;49.602;8.722;2023-03-01T04:54:05;1.70;83.50
4651;DHT22;2338;49.602;8.722;2023-03-01T04:56:54;1.60;83.00
4651;DHT22;2338;49.602;8.722;2023-03-01T04:59:41;1.60;83.50
4651;DHT22;2338;49.602;8.722;2023-03-01T05:02:26;1.60;83.60
4651;DHT22;2338;49.602;8.722;2023-03-01T05:05:11;1.60;83.60
4651;DHT22;2338;49.602;8.722;2023-03-01T05:07:59;1.50;83.50
4651;DHT22;2338;49.602;8.722;2023-03-01T05:10:46;1.50;83.50
4651;DHT22;2338;49.602;8.722;2023-03-01T05:13:32;1.50;83.50
4651;DHT22;2338;49.602;8.722;2023-03-01T05:16:19;1.60;83.60
4651;DHT22;2338;49.602;8.722;2023-03-01T05:19:05;1.60;83.40
4651;DHT22;2338;49.602;8.722;2023-03-01T05:21:55;1.60;83.60
4651;DHT22;2338;49.602;8.722;2023-03-01T05:24:48;1.60;83.40
4651;DHT22;2338;49.602;8.722;2023-03-01T05:27:34;1.60;82.80
4651;DHT22;2338;49.602;8.722;2023-03-01T05:30:20;1.50;82.90
4651;DHT22;2338;49.602;8.722;2023-03-01T05:33:08;1.50;83.50
4651;DHT22;2338;49.602;8.722;2023-03-01T05:36:00;1.60;82.90
4651;DHT22;2338;49.602;8.722;2023-03-01T05:38:45;1.60;83.30
4651;DHT22;2338;49.602;8.722;2023-03-01T05:41:31;1.60;82.90
4651;DHT22;2338;49.602;8.722;2023-03-01T05:44:17;1.60;82.90
4651;DHT22;2338;49.602;8.722;2023-03-01T05:47:02;1.60;82.80
4651;DHT22;2338;49.602;8.722;2023-03-01T05:49:49;1.50;83.50
4651;DHT22;2338;49.602;8.722;2023-03-01T05:52:35;1.60;82.80
4651;DHT22;2338;49.602;8.722;2023-03-01T05:55:21;1.60;82.70
4651;DHT22;2338;49.602;8.722;2023-03-01T05:58:09;1.50;82.60
4651;DHT22;2338;49.602;8.722;2023-03-01T06:00:55;1.60;82.00
4651;DHT22;2338;49.602;8.722;2023-03-01T06:03:41;1.70;82.00
4651;DHT22;2338;49.602;8.722;2023-03-01T06:06:28;1.70;81.80
4651;DHT22;2338;49.602;8.722;2023-03-01T06:09:14;1.70;81.40
4651;DHT22;2338;49.602;8.722;2023-03-01T06:12:00;1.60;81.50
4651;DHT22;2338;49.602;8.722;2023-03-01T06:14:46;1.70;81.40
4651;DHT22;2338;49.602;8.722;2023-03-01T06:17:34;1.70;81.10
4651;DHT22;2338;49.602;8.722;2023-03-01T06:20:23;1.70;81.50
4651;DHT22;2338;49.602;8.722;2023-03-01T06:23:10;1.70;80.80
4651;DHT22;2338;49.602;8.722;2023-03-01T06:25:56;1.70;81.40
4651;DHT22;2338;49.602;8.722;2023-03-01T06:28:41;1.70;81.50
4651;DHT22;2338;49.602;8.722;2023-03-01T06:31:30;1.80;80.70
4651;DHT22;2338;49.602;8.722;2023-03-01T06:34:15;1.80;81.00
4651;DHT22;2338;49.602;8.722;2023-03-01T06:37:01;1.80;80.90
4651;DHT22;2338;49.602;8.722;2023-03-01T06:39:50;1.70;80.40
4651;DHT22;2338;49.602;8.722;2023-03-01T06:42:36;1.80;80.40
4651;DHT22;2338;49.602;8.722;2023-03-01T06:45:22;1.90;80.50
4651;DHT22;2338;49.602;8.722;2023-03-01T06:48:08;1.90;80.00
4651;DHT22;2338;49.602;8.722;2023-03-01T06:50:54;1.90;79.50
4651;DHT22;2338;49.602;8.722;2023-03-01T06:53:42;1.90;80.10
4651;DHT22;2338;49.602;8.722;2023-03-01T06:56:30;1.90;79.90
4651;DHT22;2338;49.602;8.722;2023-03-01T06:59:16;2.00;79.70
4651;DHT22;2338;49.602;8.722;2023-03-01T07:02:02;2.10;79.00
4651;DHT22;2338;49.602;8.722;2023-03-01T07:04:49;2.20;78.30
4651;DHT22;2338;49.602;8.722;2023-03-01T07:07:35;2.20;78.10
4651;DHT22;2338;49.602;8.722;2023-03-01T07:10:21;2.20;77.70
4651;DHT22;2338;49.602;8.722;2023-03-01T07:13:08;2.30;76.80
4651;DHT22;2338;49.602;8.722;2023-03-01T07:15:54;2.40;75.80
4651;DHT22;2338;49.602;8.722;2023-03-01T07:18:39;2.40;76.40
4651;DHT22;2338;49.602;8.722;2023-03-01T07:21:25;2.40;77.00
4651;DHT22;2338;49.602;8.722;2023-03-01T07:24:11;2.40;76.80
4651;DHT22;2338;49.602;8.722;2023-03-01T07:26:57;2.40;76.80
4651;DHT22;2338;49.602;8.722;2023-03-01T07:29:44;2.40;75.70
4651;DHT22;2338;49.602;8.722;2023-03-01T07:32:30;2.50;75.90
4651;DHT22;2338;49.602;8.722;2023-03-01T07:35:15;2.60;76.50
4651;DHT22;2338;49.602;8.722;2023-03-01T07:38:01;2.60;76.80
4651;DHT22;2338;49.602;8.722;2023-03-01T07:40:46;2.60;76.10
4651;DHT22;2338;49.602;8.722;2023-03-01T07:43:32;2.70;75.40
4651;DHT22;2338;49.602;8.722;2023-03-01T07:46:19;2.80;74.30
4651;DHT22;2338;49.602;8.722;2023-03-01T07:49:05;2.80;74.70
4651;DHT22;2338;49.602;8.722;2023-03-01T07:51:50;2.90;74.00
4651;DHT22;2338;49.602;8.722;2023-03-01T07:54:36;2.90;73.30
4651;DHT22;2338;49.602;8.722;2023-03-01T07:57:22;3.00;72.80
4651;DHT22;2338;49.602;8.722;2023-03-01T08:00:10;3.00;72.60
4651;DHT22;2338;49.602;8.722;2023-03-01T08:03:00;3.10;71.50
4651;DHT22;2338;49.602;8.722;2023-03-01T08:05:45;3.10;72.10
4651;DHT22;2338;49.602;8.722;2023-03-01T08:08:31;3.30;70.60
4651;DHT22;2338;49.602;8.722;2023-03-01T08:11:17;3.30;69.50
4651;DHT22;2338;49.602;8.722;2023-03-01T08:14:03;3.30;68.70
4651;DHT22;2338;49.602;8.722;2023-03-01T08:16:49;3.30;69.90
4651;DHT22;2338;49.602;8.722;2023-03-01T08:19:36;3.40;69.20
4651;DHT22;2338;49.602;8.722;2023-03-01T08:22:22;3.40;69.00
4651;DHT22;2338;49.602;8.722;2023-03-01T08:25:08;3.50;68.20
4651;DHT22;2338;49.602;8.722;2023-03-01T08:27:54;3.60;67.40
4651;DHT22;2338;49.602;8.722;2023-03-01T08:30:40;3.60;68.10
4651;DHT22;2338;49.602;8.722;2023-03-01T08:33:25;3.70;67.50
4651;DHT22;2338;49.602;8.722;2023-03-01T08:36:12;3.80;66.20
4651;DHT22;2338;49.602;8.722;2023-03-01T08:38:59;3.80;66.20
4651;DHT22;2338;49.602;8.722;2023-03-01T08:41:46;3.80;65.30
4651;DHT22;2338;49.602;8.722;2023-03-01T08:44:31;3.80;64.40
4651;DHT22;2338;49.602;8.722;2023-03-01T08:47:18;3.90;64.60
4651;DHT22;2338;49.602;8.722;2023-03-01T08:50:04;3.90;63.90
4651;DHT22;2338;49.602;8.722;2023-03-01T08:52:51;3.90;63.70
4651;DHT22;2338;49.602;8.722;2023-03-01T08:55:37;4.00;63.70
4651;DHT22;2338;49.602;8.722;2023-03-01T08:58:23;4.10;62.90
4651;DHT22;2338;49.602;8.722;2023-03-01T09:01:09;4.20;63.00
4651;DHT22;2338;49.602;8.722;2023-03-01T09:03:55;4.10;61.20
4651;DHT22;2338;49.602;8.722;2023-03-01T09:06:41;4.20;62.10
4651;DHT22;2338;49.602;8.722;2023-03-01T09:09:28;4.30;61.80
4651;DHT22;2338;49.602;8.722;2023-03-01T09:12:15;4.40;63.10
4651;DHT22;2338;49.602;8.722;2023-03-01T09:15:01;4.50;61.10
4651;DHT22;2338;49.602;8.722;2023-03-01T09:17:47;4.50;59.80
4651;DHT22;2338;49.602;8.722;2023-03-01T09:20:32;4.60;60.00
4651;DHT22;2338;49.602;8.722;2023-03-01T09:23:18;4.70;60.90
4651;DHT22;2338;49.602;8.722;2023-03-01T09:26:05;4.90;60.10
4651;DHT22;2338;49.602;8.722;2023-03-01T09:28:54;5.00;58.40
4651;DHT22;2338;49.602;8.722;2023-03-01T09:31:41;5.10;54.90
4651;DHT22;2338;49.602;8.722;2023-03-01T09:34:26;5.20;55.00
4651;DHT22;2338;49.602;8.722;2023-03-01T09:37:12;5.30;52.30
4651;DHT22;2338;49.602;8.722;2023-03-01T09:39:59;5.50;53.90
4651;DHT22;2338;49.602;8.722;2023-03-01T09:42:53;5.60;52.70
4651;DHT22;2338;49.602;8.722;2023-03-01T09:45:44;5.80;52.80
4651;DHT22;2338;49.602;8.722;2023-03-01T09:48:38;5.80;49.40
4651;DHT22;2338;49.602;8.722;2023-03-01T09:51:30;5.90;49.80
4651;DHT22;2338;49.602;8.722;2023-03-01T09:54:16;6.00;47.10
4651;DHT22;2338;49.602;8.722;2023-03-01T09:57:18;6.00;46.60
4651;DHT22;2338;49.602;8.722;2023-03-01T10:00:18;6.20;46.70
4651;DHT22;2338;49.602;8.722;2023-03-01T10:03:12;6.20;44.70
4651;DHT22;2338;49.602;8.722;2023-03-01T10:06:04;6.30;45.20
4651;DHT22;2338;49.602;8.722;2023-03-01T10:08:54;6.30;45.10
4651;DHT22;2338;49.602;8.722;2023-03-01T10:11:44;6.40;44.50
4651;DHT22;2338;49.602;8.722;2023-03-01T10:14:34;6.50;44.00
4651;DHT22;2338;49.602;8.722;2023-03-01T10:17:30;6.60;43.50
4651;DHT22;2338;49.602;8.722;2023-03-01T10:20:21;6.70;43.10
4651;DHT22;2338;49.602;8.722;2023-03-01T10:23:08;6.80;42.40
4651;DHT22;2338;49.602;8.722;2023-03-01T10:26:07;7.00;42.10
4651;DHT22;2338;49.602;8.722;2023-03-01T10:29:02;7.30;41.10
4651;DHT22;2338;49.602;8.722;2023-03-01T10:31:50;7.30;39.30
4651;DHT22;2338;49.602;8.722;2023-03-01T10:34:37;7.50;41.30
4651;DHT22;2338;49.602;8.722;2023-03-01T10:37:23;7.70;40.60
4651;DHT22;2338;49.602;8.722;2023-03-01T10:40:11;7.80;38.30
4651;DHT22;2338;49.602;8.722;2023-03-01T10:42:58;8.00;37.90
4651;DHT22;2338;49.602;8.722;2023-03-01T10:45:46;8.10;35.10
4651;DHT22;2338;49.602;8.722;2023-03-01T10:48:31;8.00;34.40
4651;DHT22;2338;49.602;8.722;2023-03-01T10:51:18;7.90;34.20
4651;DHT22;2338;49.602;8.722;2023-03-01T10:54:06;8.00;36.00
4651;DHT22;2338;49.602;8.722;2023-03-01T10:57:02;8.20;34.60
4651;DHT22;2338;49.602;8.722;2023-03-01T11:00:02;8.30;34.00
4651;DHT22;2338;49.602;8.722;2023-03-01T11:03:10;8.50;33.60
4651;DHT22;2338;49.602;8.722;2023-03-01T11:05:59;8.50;33.90
4651;DHT22;2338;49.602;8.722;2023-03-01T11:08:48;8.70;33.50
4651;DHT22;2338;49.602;8.722;2023-03-01T11:11:35;8.90;32.30
4651;DHT22;2338;49.602;8.722;2023-03-01T11:14:22;8.90;31.40
4651;DHT22;2338;49.602;8.722;2023-03-01T11:17:15;9.00;30.60
4651;DHT22;2338;49.602;8.722;2023-03-01T11:20:06;9.10;31.80
4651;DHT22;2338;49.602;8.722;2023-03-01T11:23:02;9.20;30.00
4651;DHT22;2338;49.602;8.722;2023-03-01T11:25:54;9.20;29.50
4651;DHT22;2338;49.602;8.722;2023-03-01T11:28:41;9.10;30.80
4651;DHT22;2338;49.602;8.722;2023-03-01T11:31:29;9.10;31.30
4651;DHT22;2338;49.602;8.722;2023-03-01T11:34:20;9.20;29.90
4651;DHT22;2338;49.602;8.722;2023-03-01T11:37:15;9.20;30.60
4651;DHT22;2338;49.602;8.722;2023-03-01T11:40:12;9.30;30.20
4651;DHT22;2338;49.602;8.722;2023-03-01T11:43:09;9.50;29.70
4651;DHT22;2338;49.602;8.722;2023-03-01T11:49:34;9.70;30.00
4651;DHT22;2338;49.602;8.722;2023-03-01T11:52:28;9.80;29.20
4651;DHT22;2338;49.602;8.722;2023-03-01T11:55:28;10.00;29.20
4651;DHT22;2338;49.602;8.722;2023-03-01T11:58:27;10.30;29.00
4651;DHT22;2338;49.602;8.722;2023-03-01T12:01:30;10.50;28.30
4651;DHT22;2338;49.602;8.722;2023-03-01T12:04:57;10.50;26.30
4651;DHT22;2338;49.602;8.722;2023-03-01T12:07:50;10.40;28.10
4651;DHT22;2338;49.602;8.722;2023-03-01T12:10:43;10.50;26.90
4651;DHT22;2338;49.602;8.722;2023-03-01T12:14:13;10.40;26.30
4651;DHT22;2338;49.602;8.722;2023-03-01T12:17:16;10.40;26.00
4651;DHT22;2338;49.602;8.722;2023-03-01T12:20:17;10.40;27.10
4651;DHT22;2338;49.602;8.722;2023-03-01T12:23:25;10.30;26.20
4651;DHT22;2338;49.602;8.722;2023-03-01T12:26:20;10.30;26.50
4651;DHT22;2338;49.602;8.722;2023-03-01T12:29:21;10.50;27.40
4651;DHT22;2338;49.602;8.722;2023-03-01T12:32:24;10.60;25.70
4651;DHT22;2338;49.602;8.722;2023-03-01T12:35:28;10.70;25.90
4651;DHT22;2338;49.602;8.722;2023-03-01T12:38:37;10.80;25.30
4651;DHT22;2338;49.602;8.722;2023-03-01T12:41:40;11.00;25.40
4651;DHT22;2338;49.602;8.722;2023-03-01T12:44:40;11.00;24.50
4651;DHT22;2338;49.602;8.722;2023-03-01T12:47:39;11.00;24.90
4651;DHT22;2338;49.602;8.722;2023-03-01T12:50:37;11.10;24.70
4651;DHT22;2338;49.602;8.722;2023-03-01T12:53:26;11.20;25.10
4651;DHT22;2338;49.602;8.722;2023-03-01T12:56:16;11.30;24.20
4651;DHT22;2338;49.602;8.722;2023-03-01T12:59:07;11.40;24.50
4651;DHT22;2338;49.602;8.722;2023-03-01T13:02:00;11.60;24.50
4651;DHT22;2338;49.602;8.722;2023-03-01T13:05:02;11.60;23.90
4651;DHT22;2338;49.602;8.722;2023-03-01T13:07:57;11.70;23.00
4651;DHT22;2338;49.602;8.722;2023-03-01T13:10:46;11.50;23.10
4651;DHT22;2338;49.602;8.722;2023-03-01T13:13:33;11.40;23.40
4651;DHT22;2338;49.602;8.722;2023-03-01T13:16:40;11.30;23.30
4651;DHT22;2338;49.602;8.722;2023-03-01T13:19:30;11.30;23.50
4651;DHT22;2338;49.602;8.722;2023-03-01T13:22:29;11.40;23.80
4651;DHT22;2338;49.602;8.722;2023-03-01T13:25:18;11.60;22.50
4651;DHT22;2338;49.602;8.722;2023-03-01T13:28:36;11.70;22.50
4651;DHT22;2338;49.602;8.722;2023-03-01T13:34:54;11.90;23.10
4651;DHT22;2338;49.602;8.722;2023-03-01T13:37:41;12.20;22.10
4651;DHT22;2338;49.602;8.722;2023-03-01T13:40:58;12.30;21.80
4651;DHT22;2338;49.602;8.722;2023-03-01T13:43:46;12.40;21.30
4651;DHT22;2338;49.602;8.722;2023-03-01T13:46:33;12.50;21.60
4651;DHT22;2338;49.602;8.722;2023-03-01T13:49:22;12.70;20.90
4651;DHT22;2338;49.602;8.722;2023-03-01T13:52:30;12.70;21.10
4651;DHT22;2338;49.602;8.722;2023-03-01T13:55:21;12.70;21.00
4651;DHT22;2338;49.602;8.722;2023-03-01T13:58:18;12.70;20.40
4651;DHT22;2338;49.602;8.722;2023-03-01T14:01:06;12.60;20.30
4651;DHT22;2338;49.602;8.722;2023-03-01T14:03:53;12.50;20.20
4651;DHT22;2338;49.602;8.722;2023-03-01T14:06:40;12.40;20.20
4651;DHT22;2338;49.602;8.722;2023-03-01T14:09:28;12.30;20.10
4651;DHT22;2338;49.602;8.722;2023-03-01T14:12:39;12.50;21.30
4651;DHT22;2338;49.602;8.722;2023-03-01T14:15:31;12.60;20.30
4651;DHT22;2338;49.602;8.722;2023-03-01T14:18:21;12.60;20.30
4651;DHT22;2338;49.602;8.722;2023-03-01T14:21:09;12.70;19.80
4651;DHT22;2338;49.602;8.722;2023-03-01T14:23:54;13.00;20.00
4651;DHT22;2338;49.602;8.722;2023-03-01T14:26:42;13.30;19.20
4651;DHT22;2338;49.602;8.722;2023-03-01T14:29:34;13.70;19.30
4651;DHT22;2338;49.602;8.722;2023-03-01T14:32:22;14.10;18.90
4651;DHT22;2338;49.602;8.722;2023-03-01T14:35:20;14.30;18.60
4651;DHT22;2338;49.602;8.722;2023-03-01T14:38:06;14.30;17.70
4651;DHT22;2338;49.602;8.722;2023-03-01T14:40:54;14.20;17.80
4651;DHT22;2338;49.602;8.722;2023-03-01T14:43:45;14.10;17.60
4651;DHT22;2338;49.602;8.722;2023-03-01T14:46:34;13.40;18.10
4651;DHT22;2338;49.602;8.722;2023-03-01T14:49:24;12.80;18.90
4651;DHT22;2338;49.602;8.722;2023-03-01T14:52:18;12.20;20.00
4651;DHT22;2338;49.602;8.722;2023-03-01T14:55:12;11.50;20.30
4651;DHT22;2338;49.602;8.722;2023-03-01T14:58:03;11.10;21.20
4651;DHT22;2338;49.602;8.722;2023-03-01T15:00:53;10.80;21.60
4651;DHT22;2338;49.602;8.722;2023-03-01T15:03:42;10.50;22.10
4651;DHT22;2338;49.602;8.722;2023-03-01T15:06:28;10.40;22.50
4651;DHT22;2338;49.602;8.722;2023-03-01T15:09:15;10.20;22.70
4651;DHT22;2338;49.602;8.722;2023-03-01T15:12:34;10.40;23.30
4651;DHT22;2338;49.602;8.722;2023-03-01T15:15:33;11.10;22.30
4651;DHT22;2338;49.602;8.722;2023-03-01T15:18:22;12.00;19.80
4651;DHT22;2338;49.602;8.722;2023-03-01T15:21:16;12.80;19.40
4651;DHT22;2338;49.602;8.722;2023-03-01T15:24:05;13.30;18.80
4651;DHT22;2338;49.602;8.722;2023-03-01T15:26:57;13.60;17.60
4651;DHT22;2338;49.602;8.722;2023-03-01T15:29:50;14.30;16.80
4651;DHT22;2338;49.602;8.722;2023-03-01T15:32:37;15.20;15.40
4651;DHT22;2338;49.602;8.722;2023-03-01T15:35:40;15.60;14.80
4651;DHT22;2338;49.602;8.722;2023-03-01T15:38:33;15.00;14.70
4651;DHT22;2338;49.602;8.722;2023-03-01T15:41:24;14.10;15.80
4651;DHT22;2338;49.602;8.722;2023-03-01T15:44:17;13.20;17.00
4651;DHT22;2338;49.602;8.722;2023-03-01T15:47:22;12.60;18.30
4651;DHT22;2338;49.602;8.722;2023-03-01T15:50:16;11.80;19.50
4651;DHT22;2338;49.602;8.722;2023-03-01T15:53:06;11.10;19.90
4651;DHT22;2338;49.602;8.722;2023-03-01T15:55:53;10.60;21.10
4651;DHT22;2338;49.602;8.722;2023-03-01T15:58:38;10.10;21.70
4651;DHT22;2338;49.602;8.722;2023-03-01T16:01:25;9.90;23.40
4651;DHT22;2338;49.602;8.722;2023-03-01T16:04:12;9.60;24.30
4651;DHT22;2338;49.602;8.722;2023-03-01T16:07:04;9.40;25.00
4651;DHT22;2338;49.602;8.722;2023-03-01T16:09:51;9.30;25.40
4651;DHT22;2338;49.602;8.722;2023-03-01T16:12:37;9.20;25.30
4651;DHT22;2338;49.602;8.722;2023-03-01T16:15:25;9.10;25.90
4651;DHT22;2338;49.602;8.722;2023-03-01T16:18:11;9.00;26.00
4651;DHT22;2338;49.602;8.722;2023-03-01T16:20:57;8.90;26.60
4651;DHT22;2338;49.602;8.722;2023-03-01T16:23:44;8.90;26.20
4651;DHT22;2338;49.602;8.722;2023-03-01T16:26:31;8.90;26.20
4651;DHT22;2338;49.602;8.722;2023-03-01T16:29:17;8.90;26.70
4651;DHT22;2338;49.602;8.722;2023-03-01T16:32:03;8.80;27.00
4651;DHT22;2338;49.602;8.722;2023-03-01T16:34:48;8.70;27.20
4651;DHT22;2338;49.602;8.722;2023-03-01T16:37:35;8.60;27.80
4651;DHT22;2338;49.602;8.722;2023-03-01T16:40:22;8.70;27.90
4651;DHT22;2338;49.602;8.722;2023-03-01T16:43:09;8.70;28.20
4651;DHT22;2338;49.602;8.722;2023-03-01T16:45:55;8.60;28.00
4651;DHT22;2338;49.602;8.722;2023-03-01T16:48:41;8.50;28.30
4651;DHT22;2338;49.602;8.722;2023-03-01T16:51:26;8.60;28.10
4651;DHT22;2338;49.602;8.722;2023-03-01T16:54:14;8.50;29.00
4651;DHT22;2338;49.602;8.722;2023-03-01T16:57:00;8.50;29.00
4651;DHT22;2338;49.602;8.722;2023-03-01T16:59:47;8.40;29.60
4651;DHT22;2338;49.602;8.722;2023-03-01T17:02:33;8.30;31.20
4651;DHT22;2338;49.602;8.722;2023-03-01T17:05:18;8.20;33.10
4651;DHT22;2338;49.602;8.722;2023-03-01T17:08:07;8.00;35.30
4651;DHT22;2338;49.602;8.722;2023-03-01T17:10:53;7.80;38.30
4651;DHT22;2338;49.602;8.722;2023-03-01T17:13:39;7.60;39.00
4651;DHT22;2338;49.602;8.722;2023-03-01T17:16:27;7.40;40.80
4651;DHT22;2338;49.602;8.722;2023-03-01T17:19:13;7.10;44.80
4651;DHT22;2338;49.602;8.722;2023-03-01T17:22:01;6.90;48.10
4651;DHT22;2338;49.602;8.722;2023-03-01T17:24:47;6.70;51.40
4651;DHT22;2338;49.602;8.722;2023-03-01T17:27:33;6.50;53.50
4651;DHT22;2338;49.602;8.722;2023-03-01T17:30:19;6.40;54.70
4651;DHT22;2338;49.602;8.722;2023-03-01T17:33:06;6.30;56.00
4651;DHT22;2338;49.602;8.722;2023-03-01T17:35:52;6.20;54.60
4651;DHT22;2338;49.602;8.722;2023-03-01T17:38:37;6.10;56.00
4651;DHT22;2338;49.602;8.722;2023-03-01T17:41:23;6.00;57.40
4651;DHT22;2338;49.602;8.722;2023-03-01T17:44:09;6.00;58.50
4651;DHT22;2338;49.602;8.722;2023-03-01T17:46:54;6.00;57.30
4651;DHT22;2338;49.602;8.722;2023-03-01T17:49:41;6.00;57.20
4651;DHT22;2338;49.602;8.722;2023-03-01T17:52:27;5.90;57.80
4651;DHT22;2338;49.602;8.722;2023-03-01T17:55:13;5.80;57.40
4651;DHT22;2338;49.602;8.722;2023-03-01T17:57:58;5.80;58.10
4651;DHT22;2338;49.602;8.722;2023-03-01T18:00:44;5.70;58.60
4651;DHT22;2338;49.602;8.722;2023-03-01T18:03:30;5.60;61.00
4651;DHT22;2338;49.602;8.722;2023-03-01T18:06:19;5.40;62.00
4651;DHT22;2338;49.602;8.722;2023-03-01T18:09:05;5.30;63.80
4651;DHT22;2338;49.602;8.722;2023-03-01T18:11:51;5.20;65.00
4651;DHT22;2338;49.602;8.722;2023-03-01T18:14:37;5.10;65.50
4651;DHT22;2338;49.602;8.722;2023-03-01T18:17:24;5.20;65.60
4651;DHT22;2338;49.602;8.722;2023-03-01T18:20:10;5.20;65.30
4651;DHT22;2338;49.602;8.722;2023-03-01T18:22:57;5.30;64.60
4651;DHT22;2338;49.602;8.722;2023-03-01T18:25:43;5.30;63.10
4651;DHT22;2338;49.602;8.722;2023-03-01T18:28:29;5.40;61.80
4651;DHT22;2338;49.602;8.722;2023-03-01T18:31:17;5.60;60.70
4651;DHT22;2338;49.602;8.722;2023-03-01T18:34:05;5.70;59.90
4651;DHT22;2338;49.602;8.722;2023-03-01T18:36:51;5.70;59.10
4651;DHT22;2338;49.602;8.722;2023-03-01T18:39:40;5.70;59.10
4651;DHT22;2338;49.602;8.722;2023-03-01T18:42:26;5.70;59.20
4651;DHT22;2338;49.602;8.722;2023-03-01T18:45:11;5.60;60.90